ADDS TAF Board (Experimental) INFO Settings

IDs: Format: Expanded Condensed

KDEN - Denver Intl, CO, US

Issued at 0532 UTC 02 Apr 2015
Updated at: 0633 UTC 02 Apr 2015
Time0553Z 02/07Z 02/08Z 02/09Z 02/10Z 02/11Z 02/12Z 02/13Z 02/14Z 02/15Z 02/16Z 02/17Z 02/18Z 02/19Z
Type OBS PRVL PRVL PRVL PRVL PRVL PRVL PRVL PRVL
  [TEMP]  
PRVL
  [TEMP]  
PRVL
  [TEMP]  
PRVL
  [TEMP]  
PRVL PRVL
VIS 10 >6 >6 >6 >6 >6 >6 >6 >6
  [5]  
>6
  [5]  
>6
  [5]  
>6
  [5]  
5 5
CIG -- 100 100 40 40 40 40 25 25
  [15]  
25
  [15]  
25
  [15]  
25
  [15]  
20 20
Cover SCT BKN BKN OVC OVC OVC OVC OVC OVC
  [BKN]  
OVC
  [BKN]  
OVC
  [BKN]  
OVC
  [BKN]  
OVC OVC
FltCat VFR VFR VFR VFR VFR VFR VFR MVFR MVFR
  [MVFR]  
MVFR
  [MVFR]  
MVFR
  [MVFR]  
MVFR
  [MVFR]  
MVFR MVFR
WX -- -- -- -- -- -- -- VCSH VCSH
  [-RA -SN]  
VCSH
  [-RA -SN]  
VCSH
  [-RA -SN]  
VCSH
  [-RA -SN]  
-RA -SN -RA -SN
WDir 60 30 30 60 60 60 60 70 70
[70]
70
[70]
70
[70]
70
[70]
60 60
WSpd 8 9 9 10 10 10 10 10 10
  [10]  
10
  [10]  
10
  [10]  
10
  [10]  
10 10
WGst -- -- -- -- -- -- -- -- --
  [--]  
--
  [--]  
--
  [--]  
--
  [--]  
-- --
R07/25
XWnd 4 8 8 5 5 5 5 3 3 3 3 3 5 5
XGst -- -- -- -- -- -- -- -- 0 0 0 0 -- --
HWnd 7 5 5 9 9 9 9 9 9 9 9 9 9 9
HGst -- -- -- -- -- -- -- -- 0 0 0 0 -- --
R08/26
XWnd 4 8 8 5 5 5 5 4 4 4 4 4 5 5
XGst -- -- -- -- -- -- -- -- 0 0 0 0 -- --
HWnd 7 4 4 9 9 9 9 9 9 9 9 9 9 9
HGst -- -- -- -- -- -- -- -- 0 0 0 0 -- --
R16/34
XWnd 7 4 4 9 9 9 9 9 9 9 9 9 9 9
XGst -- -- -- -- -- -- -- -- 0 0 0 0 -- --
HWnd -4 -8 -8 -5 -5 -5 -5 -4 -4 -4 -4 -4 -5 -5
HGst -- -- -- -- -- -- -- -- 0 0 0 0 -- --
R17/35
XWnd 7 4 4 9 9 9 9 9 9 9 9 9 9 9
XGst -- -- -- -- -- -- -- -- 0 0 0 0 -- --
HWnd -4 -8 -8 -5 -5 -5 -5 -4 -4 -4 -4 -4 -5 -5
HGst -- -- -- -- -- -- -- -- 0 0 0 0 -- --

NOTE: TEMPO conditions in [brackets]. Keep in mind TEMPO conditions might be better (lower impact) than prevailing conditions.

Raw TAF
KDEN 020532Z 0206/0312 03009KT P6SM SCT040 BKN100
  FM020900 06010KT P6SM SCT020 OVC040
  FM021300 07010KT P6SM VCSH SCT015 OVC025
  TEMPO 0214/0218 5SM -RASN BKN015
  FM021800 06010KT 5SM -RASN SCT012 OVC020
  FM022100 02015G22KT 1SM -SN BR OVC010
  FM030000 02012G19KT 3/4SM -SN BR SCT005 OVC008
  FM030500 35007KT 5SM -SHSN FEW005 SCT015 OVC030


Raw METAR
KDEN 020553Z 06008KT 10SM FEW070 FEW090 SCT180 05/02 A2992 RMK AO2 RAB34E39 SLP085 P0000 60000 T00500022 10139 20050 51025
KDEN 020453Z 10007KT 10SM SCT070 BKN120 OVC180 05/03 A2990 RMK AO2 SLP078 SHRA DSNT W-NW T00500033
KDEN 020353Z 10009KT 10SM BKN120 BKN180 08/04 A2987 RMK AO2 SLP064 T00780039

METAR Board
Radar Display
Forecast Discussion

TAF Board Legend

Potential Impact
Threat None Slight Moderate High
Visibility (sm) ≥5.1 5.1>X≥3 3>X≥1 <1
Ceiling (100 ft) ≥30.1 30.1>X≥10 10>X≥5 <5
Wind Speed (kt) <10 10≤X<20 20≤X<30 ≥30
Wind Gust (kt) <15 15≤X<25 25≤X<35 ≥35
Weather No Wx Reported VCTS,-TS,-FZRA,SN TS,FZRA +TS,+FZRA,+SN